createdAt,value
2022-08-26T00:13:49.419Z,99816.00
2022-08-26T00:28:51.599Z,99806.22
2022-08-26T00:43:55.102Z,99798.19
2022-08-26T00:59:01.287Z,99791.34
2022-08-26T01:14:06.742Z,99786.75
2022-08-26T01:29:17.333Z,99767.03
2022-08-26T01:44:22.589Z,99765.34
2022-08-26T01:59:25.048Z,99785.34
2022-08-26T02:14:31.363Z,99774.63
2022-08-26T02:29:40.635Z,99784.38
2022-08-26T02:44:42.536Z,99790.19
2022-08-26T02:59:46.064Z,99809.53
2022-08-26T03:14:48.530Z,99842.97
2022-08-26T03:30:08.717Z,99838.38
2022-08-26T03:45:15.512Z,99839.78
2022-08-26T04:00:18.736Z,99832.34
2022-08-26T04:15:21.977Z,99825.06
2022-08-26T04:30:23.875Z,99806.28
2022-08-26T04:45:27.367Z,99824.56
2022-08-26T05:00:29.412Z,99814.47
2022-08-26T05:15:31.349Z,99822.19
2022-08-26T05:30:33.368Z,99818.88
2022-08-26T05:45:45.898Z,99819.22
2022-08-26T06:01:02.176Z,99821.66
2022-08-26T06:16:07.897Z,99855.84
2022-08-26T06:31:10.190Z,99856.63
2022-08-26T06:46:15.071Z,99885.34
2022-08-26T07:01:29.964Z,99890.13
2022-08-26T07:16:34.235Z,99878.66
2022-08-26T07:31:37.935Z,99877.28
2022-08-26T07:46:52.179Z,99873.78
2022-08-26T08:01:54.716Z,99851.94
2022-08-26T08:16:58.203Z,99857.38
2022-08-26T08:32:00.216Z,99877.94
2022-08-26T08:47:13.359Z,99858.41
2022-08-26T09:02:39.618Z,99836.84
2022-08-26T09:18:01.598Z,99843.47
2022-08-26T09:33:16.642Z,99843.13
2022-08-26T09:48:36.239Z,99836.19
2022-08-26T10:03:39.985Z,99834.03
2022-08-26T10:19:02.933Z,99824.41
2022-08-26T10:34:08.597Z,99820.25
2022-08-26T10:49:14.075Z,99827.28
2022-08-26T11:04:35.166Z,99817.97
2022-08-26T11:19:59.638Z,99827.97
2022-08-26T11:35:08.029Z,99825.06
2022-08-26T11:50:23.662Z,99813.09
2022-08-26T12:05:36.957Z,99797.78
2022-08-26T12:20:48.764Z,99781.97
2022-08-26T12:35:56.299Z,99791.34
2022-08-26T12:50:59.502Z,99791.78
2022-08-26T13:06:31.722Z,99775.22
2022-08-26T13:21:42.113Z,99771.34
2022-08-26T13:36:44.994Z,99785.09
2022-08-26T13:51:46.960Z,99790.75
2022-08-26T14:06:49.127Z,99811.59
2022-08-26T14:21:51.090Z,99815.50
2022-08-26T14:36:53.003Z,99799.56
2022-08-26T14:51:56.581Z,99714.56
2022-08-26T15:06:59.925Z,99709.28
2022-08-26T15:22:01.915Z,99756.78
2022-08-26T15:37:04.597Z,99741.88
2022-08-26T15:52:07.148Z,99757.00
2022-08-26T16:07:09.210Z,99762.69
2022-08-26T16:22:13.012Z,99771.94
2022-08-26T16:37:15.029Z,99784.59
2022-08-26T16:52:17.001Z,99762.16
2022-08-26T17:07:19.069Z,99743.44
2022-08-26T17:22:20.847Z,99750.75
2022-08-26T17:37:22.760Z,99760.19
2022-08-26T17:52:24.640Z,99752.06
2022-08-26T18:07:26.644Z,99740.72
2022-08-26T18:22:28.712Z,99728.72
2022-08-26T18:37:31.733Z,99707.41
2022-08-26T18:52:33.769Z,99705.59
2022-08-26T19:07:39.614Z,99710.72
2022-08-26T19:22:41.612Z,99689.47
2022-08-26T19:37:43.319Z,99680.34
2022-08-26T19:52:45.249Z,99685.63
2022-08-26T20:07:47.547Z,99680.91
2022-08-26T20:22:49.735Z,99672.66
2022-08-26T20:37:51.642Z,99682.28
2022-08-26T20:52:56.227Z,99674.16
2022-08-26T21:07:58.295Z,99676.09
2022-08-26T21:23:00.285Z,99680.56
2022-08-26T21:38:02.186Z,99671.59
2022-08-26T21:53:04.334Z,99652.91
2022-08-26T22:08:06.230Z,99636.06
2022-08-26T22:23:08.837Z,99641.03
2022-08-26T22:38:11.236Z,99635.56
2022-08-26T22:53:14.840Z,99627.75
2022-08-26T23:08:17.310Z,99614.13
2022-08-26T23:23:19.248Z,99617.16
2022-08-26T23:38:21.180Z,99616.84
2022-08-26T23:53:23.149Z,99630.09
